Airfield :
LOGIN :

Register | Disclaimer

   EN    FR    IT 

 










Legend :    VFR   Marginal VFR   IFR   Intensive IFR   Very Intensive IFR
Visi :
Ceiling :
>= 8 km
>= 3000ft
5 to 8 km
1000 to 3000 ft
1500m to 5 km
500 to 1000 ft
800 to 1500m
200 to 500 ft
< 800m
< 200 ft
Symbols :   Thunderstorms  Fog  Heavy snow  Heavy precipitations  Wind > 20 kt
SIGMETs :     Misc.  Thunderstorms  Icing  Turbulence  Mountain Waves  Volcanic Ashes






- Airport Elevation : 866 ft
- IATA code : KAO


EFKS - Kuusamo

CURRENT METAR :
  • 131550Z AUTO 04005KT 010V080 9999 OVC020 14/10 Q1017

EXPIRED METARs :
  • 131520Z AUTO 36007KT 9999 OVC020 14/10 Q1017
  • 131450Z AUTO 02006KT 340V040 9999 OVC020 14/10 Q1017
  • 131420Z AUTO 35007KT 320V020 9999 OVC019 14/10 Q1017
  • 131350Z AUTO 33009KT 9999 OVC017 14/11 Q1017
  • 131320Z AUTO 36008KT 320V030 9999 OVC017 14/11 Q1017
  • 131250Z AUTO 34009KT 9999 OVC018 14/11 Q1016
  • 131220Z AUTO 35009KT 320V030 9999 OVC017 14/11 Q1016
  • 131150Z AUTO 34010KT 9999 OVC016 15/11 Q1016
  • 131120Z AUTO 34009KT 9999 OVC011 15/11 Q1016

TAF TAF EFKS
Valid from the 13 at 15:00 until the 13 at 21:00 UTC


131430Z 1315/1321 35007KT 9999 BKN020



MET'MAP, your aeronautical weather chart ! - Copyright ORBIFLY December 2007 - Disclaimer

ORBIFLY MET'MAP TEAM :

Programming & Development : Alexandra Zaïnal
Original concept : Baudouin d'Aumeries
Technical & hardware support : Manuel Goepfert
Assistance : Marc-Olivier Méhu




SOURCES & CREDITS :

   NOAA